Time;durP1;ratioP1;P1;durP2;ratioP2;P2;SDS_P1;SDS_P2;PMS_P1;PMS_P2;Temp;Humidity;BMP_temperature;BMP_pressure;BME280_temperature;BME280_humidity;BME280_pressure;Samples;Min_cycle;Max_cycle;Signal;HPM_P1;HPM_P2
2023/03/31 00:00:10;;;;;;;8.80;4.60;;;;;;;7.63;35.43;100386.25;108472;1280;21982;-67
2023/03/31 00:02:40;;;;;;;8.40;5.00;;;;;;;7.66;35.52;100381.17;108498;1281;21980;-58
2023/03/31 00:05:07;;;;;;;9.60;5.10;;;;;;;7.68;35.46;100377.34;108535;1281;21982;-59
2023/03/31 00:07:36;;;;;;;9.20;4.80;;;;;;;7.67;35.50;100376.29;108547;1281;22965;-58
2023/03/31 00:10:06;;;;;;;8.40;4.80;;;;;;;7.66;35.68;100373.31;108513;1281;21992;-67
2023/03/31 00:12:34;;;;;;;16.20;8.80;;;;;;;7.67;36.00;100372.45;108577;1281;21980;-67
2023/03/31 00:15:00;;;;;;;13.70;7.60;;;;;;;7.65;36.36;100371.39;107753;1281;1002630;-59
2023/03/31 00:17:26;;;;;;;12.00;7.60;;;;;;;7.60;36.67;100370.88;107736;1281;1002910;-67
2023/03/31 00:19:52;;;;;;;13.90;7.90;;;;;;;7.57;36.70;100369.13;108523;1281;21982;-59
2023/03/31 00:22:20;;;;;;;14.60;8.20;;;;;;;7.53;36.95;100361.61;107811;1281;1002750;-67
2023/03/31 00:24:47;;;;;;;12.70;6.80;;;;;;;7.50;36.77;100360.23;108507;1281;21982;-68
2023/03/31 00:27:13;;;;;;;14.70;8.30;;;;;;;7.49;36.82;100360.06;108660;1281;21981;-67
2023/03/31 00:29:42;;;;;;;23.50;13.30;;;;;;;7.51;36.91;100358.83;108430;1281;21987;-60
2023/03/31 00:32:14;;;;;;;31.70;16.80;;;;;;;7.54;36.69;100359.52;108501;1281;23045;-58
2023/03/31 00:34:40;;;;;;;20.90;12.10;;;;;;;7.56;37.09;100358.65;108455;1281;21979;-67
2023/03/31 00:37:08;;;;;;;14.70;9.10;;;;;;;7.57;37.19;100354.64;108456;1281;21989;-69
2023/03/31 00:39:35;;;;;;;14.30;8.60;;;;;;;7.58;37.16;100350.80;108451;1277;21982;-67
2023/03/31 00:42:02;;;;;;;14.00;7.40;;;;;;;7.59;36.99;100347.83;108469;1281;22014;-59
2023/03/31 00:44:33;;;;;;;9.80;6.30;;;;;;;7.59;37.02;100346.59;108492;1281;21982;-67
2023/03/31 00:47:18;;;;;;;12.10;6.80;;;;;;;7.56;37.11;100345.73;108524;1281;22029;-58
2023/03/31 00:49:46;;;;;;;11.30;6.40;;;;;;;7.51;37.14;100342.06;108588;1281;23071;-67
2023/03/31 00:52:12;;;;;;;13.40;5.70;;;;;;;7.48;37.18;100341.72;108501;1281;21980;-59
2023/03/31 00:54:38;;;;;;;8.60;5.10;;;;;;;7.45;37.15;100342.77;108412;1281;22036;-58
2023/03/31 00:57:05;;;;;;;9.20;5.30;;;;;;;7.42;37.40;100344.33;108402;1281;22024;-67
2023/03/31 00:59:34;;;;;;;10.40;5.30;;;;;;;7.39;37.35;100345.38;107682;1280;1002808;-67
2023/03/31 01:02:01;;;;;;;10.00;5.80;;;;;;;7.38;37.14;100343.10;108416;1281;21979;-67
2023/03/31 01:04:34;;;;;;;8.40;5.00;;;;;;;7.36;37.25;100342.77;108403;1281;23736;-67
2023/03/31 01:07:11;;;;;;;7.60;4.30;;;;;;;7.33;37.23;100346.08;107774;1281;1003128;-67
2023/03/31 01:09:37;;;;;;;8.90;4.90;;;;;;;7.29;37.36;100344.49;108481;1281;21981;-58
2023/03/31 01:12:07;;;;;;;10.40;4.90;;;;;;;7.28;37.21;100342.07;107442;1281;1002728;-67
2023/03/31 01:14:33;;;;;;;8.10;4.40;;;;;;;7.27;37.38;100341.88;108316;1281;21986;-67
2023/03/31 01:16:59;;;;;;;10.00;5.70;;;;;;;7.26;37.72;100339.80;108424;1282;22452;-68
2023/03/31 01:19:35;;;;;;;10.20;5.00;;;;;;;7.27;37.72;100339.09;108481;1281;21980;-59
2023/03/31 01:22:10;;;;;;;8.10;4.10;;;;;;;7.26;37.70;100338.05;108510;1281;22054;-67
2023/03/31 01:24:36;;;;;;;8.90;4.40;;;;;;;7.25;37.56;100333.69;108475;1281;21980;-58
2023/03/31 01:27:25;;;;;;;8.90;3.80;;;;;;;7.24;37.63;100327.23;108435;1281;21983;-68
2023/03/31 01:29:58;;;;;;;9.50;4.90;;;;;;;7.23;37.53;100325.30;108415;1281;22018;-68
2023/03/31 01:32:49;;;;;;;9.60;4.30;;;;;;;7.24;37.92;100321.12;108302;1281;21990;-58
2023/03/31 01:35:19;;;;;;;;;;;;;;;7.25;37.77;100312.56;108432;1281;21978;-58
2023/03/31 01:38:04;;;;;;;8.00;4.40;;;;;;;7.27;37.74;100311.35;108385;1281;22002;-58
2023/03/31 01:41:11;;;;;;;6.20;3.70;;;;;;;7.27;37.59;100312.92;107677;1281;1002563;-58
2023/03/31 01:44:04;;;;;;;7.00;3.80;;;;;;;7.24;37.76;100309.26;108457;1281;21981;-58
2023/03/31 01:46:35;;;;;;;9.00;4.10;;;;;;;7.21;37.97;100300.88;107710;1281;1003123;-58
2023/03/31 01:49:20;;;;;;;7.30;4.20;;;;;;;7.20;37.71;100297.91;108501;1281;23049;-67
2023/03/31 01:52:02;;;;;;;8.20;4.40;;;;;;;7.20;37.74;100295.63;108456;1281;21982;-68
2023/03/31 01:55:12;;;;;;;6.70;4.10;;;;;;;7.17;37.85;100294.76;108493;1277;21979;-67
2023/03/31 01:57:44;;;;;;;7.80;3.90;;;;;;;7.16;37.49;100288.66;108424;1281;21982;-68
2023/03/31 02:00:10;;;;;;;;;;;;;;;7.18;37.54;100287.27;108442;1281;21970;-68
2023/03/31 02:02:45;;;;;;;8.90;3.80;;;;;;;7.17;37.46;100283.77;108464;1281;21960;-68
2023/03/31 02:05:19;;;;;;;8.40;4.10;;;;;;;7.13;37.71;100284.80;108332;1281;23657;-59
2023/03/31 02:07:49;;;;;;;7.00;3.50;;;;;;;7.08;37.63;100282.89;108319;1270;21981;-58
2023/03/31 02:10:15;;;;;;;8.90;4.40;;;;;;;7.02;37.51;100285.69;108478;1281;23619;-68
2023/03/31 02:12:41;;;;;;;8.20;3.80;;;;;;;6.96;37.61;100281.83;108244;1273;21980;-59
2023/03/31 02:15:10;;;;;;;7.20;4.10;;;;;;;6.92;37.81;100276.23;107640;1278;1002909;-58
2023/03/31 02:17:50;;;;;;;7.00;3.90;;;;;;;6.88;37.76;100272.39;108505;1281;23709;-68
2023/03/31 02:20:17;;;;;;;10.10;4.70;;;;;;;6.84;37.63;100270.84;107722;1271;1003143;-68
2023/03/31 02:22:46;;;;;;;8.50;4.10;;;;;;;6.82;37.66;100268.92;108450;1281;23148;-58
2023/03/31 02:25:14;;;;;;;9.90;4.70;;;;;;;6.79;37.79;100263.15;108540;1281;24330;-68
2023/03/31 02:27:41;;;;;;;8.30;4.30;;;;;;;6.76;37.60;100258.95;107623;1281;1006354;-68
2023/03/31 02:30:08;;;;;;;7.60;4.80;;;;;;;6.70;37.47;100259.99;107740;1281;1002553;-68
2023/03/31 02:32:43;;;;;;;9.60;5.20;;;;;;;6.65;37.63;100255.10;108406;1279;22240;-59
2023/03/31 02:35:11;;;;;;;10.50;4.90;;;;;;;6.61;37.76;100255.79;107676;1281;1002270;-59
2023/03/31 02:37:37;;;;;;;8.80;5.30;;;;;;;6.58;37.77;100251.61;108531;1281;21980;-59
2023/03/31 02:40:09;;;;;;;9.60;4.90;;;;;;;6.55;37.83;100243.58;107566;1281;1002820;-68
2023/03/31 02:42:38;;;;;;;8.60;4.70;;;;;;;6.54;37.82;100241.30;108599;1281;22049;-69
2023/03/31 02:45:05;;;;;;;10.10;4.90;;;;;;;6.53;37.74;100241.14;108255;1281;21987;-67
2023/03/31 02:47:31;;;;;;;9.00;5.10;;;;;;;6.50;37.80;100236.58;108472;1281;22017;-58
2023/03/31 02:49:58;;;;;;;8.20;4.60;;;;;;;6.46;37.72;100236.23;108506;1281;21992;-59
2023/03/31 02:52:50;;;;;;;9.70;4.80;;;;;;;6.43;37.97;100235.70;108386;1281;21947;-69
2023/03/31 02:55:22;;;;;;;9.80;5.60;;;;;;;6.40;38.21;100233.27;107697;1281;1003097;-58
2023/03/31 02:58:11;;;;;;;9.90;5.40;;;;;;;6.40;38.32;100226.64;108485;1281;21999;-58
2023/03/31 03:00:43;;;;;;;9.20;5.00;;;;;;;6.41;38.46;100225.06;108448;1276;21980;-58
2023/03/31 03:03:21;;;;;;;10.10;5.30;;;;;;;6.39;38.22;100221.58;108431;1281;21976;-68
2023/03/31 03:05:57;;;;;;;10.80;5.40;;;;;;;6.36;38.24;100215.65;108518;1281;21990;-59
2023/03/31 03:08:23;;;;;;;9.00;5.60;;;;;;;6.32;38.65;100219.48;108544;1281;21998;-67
2023/03/31 03:11:02;;;;;;;10.00;5.40;;;;;;;6.27;38.26;100213.20;108439;1281;21986;-67
2023/03/31 03:13:48;;;;;;;9.70;5.90;;;;;;;6.23;38.43;100209.52;107655;1280;1003289;-68
2023/03/31 03:16:26;;;;;;;10.90;5.90;;;;;;;6.22;38.71;100211.25;108397;1281;22120;-58
2023/03/31 03:19:02;;;;;;;10.30;5.80;;;;;;;6.21;38.86;100207.77;108448;1281;21985;-58
2023/03/31 03:21:31;;;;;;;10.20;6.20;;;;;;;6.23;38.91;100209.68;107662;1281;1002725;-67
2023/03/31 03:23:57;;;;;;;11.50;5.60;;;;;;;6.23;39.27;100208.30;107667;1281;1002224;-68
2023/03/31 03:26:23;;;;;;;11.70;6.10;;;;;;;6.19;39.05;100206.20;108420;1281;21978;-68
2023/03/31 03:28:50;;;;;;;10.30;5.50;;;;;;;6.17;39.22;100202.54;108545;1280;21984;-68
2023/03/31 03:31:16;;;;;;;12.50;6.00;;;;;;;6.14;39.55;100199.73;107762;1281;1002185;-68
2023/03/31 03:33:42;;;;;;;9.70;5.20;;;;;;;6.13;39.36;100197.65;108398;1281;21993;-58
2023/03/31 03:36:08;;;;;;;12.20;6.10;;;;;;;6.14;39.37;100197.65;108420;1281;22074;-68
2023/03/31 03:38:35;;;;;;;11.30;5.90;;;;;;;6.14;39.32;100192.08;108487;1281;21995;-59
2023/03/31 03:41:01;;;;;;;11.50;5.60;;;;;;;6.16;39.17;100189.29;108420;1281;21998;-58
2023/03/31 03:43:27;;;;;;;12.90;5.90;;;;;;;6.16;39.11;100188.08;108616;1281;21989;-69
2023/03/31 03:45:53;;;;;;;13.10;6.90;;;;;;;6.16;39.14;100185.98;108468;1281;21981;-60
2023/03/31 03:48:20;;;;;;;9.00;5.80;;;;;;;6.17;39.31;100185.80;107764;1280;1002412;-68
2023/03/31 03:50:46;;;;;;;11.40;5.60;;;;;;;6.19;39.90;100183.37;108479;1281;22095;-69
2023/03/31 03:53:12;;;;;;;9.10;5.50;;;;;;;6.21;40.14;100179.89;108439;1281;24056;-69
2023/03/31 03:55:44;;;;;;;9.50;5.40;;;;;;;6.24;41.02;100178.16;108404;1281;21991;-60
2023/03/31 03:58:10;;;;;;;12.10;6.10;;;;;;;6.32;40.46;100175.56;108394;1281;21991;-59
2023/03/31 04:00:35;;;;;;;10.40;5.90;;;;;;;6.43;40.25;100172.95;108460;1281;21986;-66
2023/03/31 04:03:02;;;;;;;14.10;5.70;;;;;;;6.54;40.24;100169.31;107718;1277;1002991;-60
2023/03/31 04:05:28;;;;;;;9.60;5.50;;;;;;;6.63;40.36;100167.23;108523;1281;21990;-61
2023/03/31 04:07:54;;;;;;;11.40;6.10;;;;;;;6.68;40.38;100163.05;108503;1281;21977;-60
2023/03/31 04:10:23;;;;;;;11.90;5.70;;;;;;;6.69;40.21;100160.59;108406;1281;21993;-61
2023/03/31 04:12:52;;;;;;;11.00;6.60;;;;;;;6.68;40.02;100157.11;108494;1281;22017;-70
2023/03/31 04:15:17;;;;;;;12.50;6.60;;;;;;;6.64;40.05;100152.75;108451;1281;21981;-69
2023/03/31 04:17:49;;;;;;;15.60;6.10;;;;;;;6.59;40.25;100141.25;108499;1281;21987;-60
2023/03/31 04:20:15;;;;;;;10.50;5.60;;;;;;;6.55;40.42;100141.41;108420;1281;21990;-68
2023/03/31 04:22:41;;;;;;;13.70;6.10;;;;;;;6.51;40.66;100145.77;108486;1281;21998;-60
2023/03/31 04:25:18;;;;;;;10.40;5.20;;;;;;;6.49;40.83;100147.86;108480;1277;21985;-67
2023/03/31 04:27:49;;;;;;;8.10;5.00;;;;;;;6.50;41.04;100146.47;108481;1281;21989;-68
2023/03/31 04:30:23;;;;;;;9.90;5.00;;;;;;;6.57;41.31;100142.64;108497;1281;21987;-60
2023/03/31 04:33:02;;;;;;;20.70;6.60;;;;;;;6.66;41.39;100141.77;108541;1281;22024;-70
2023/03/31 04:35:48;;;;;;;10.90;5.20;;;;;;;6.82;41.84;100140.02;108554;1281;21988;-67
2023/03/31 04:38:19;;;;;;;7.90;4.60;;;;;;;6.97;41.58;100138.25;107823;1281;1003067;-60
2023/03/31 04:40:46;;;;;;;8.80;5.60;;;;;;;7.08;41.84;100129.86;107714;1281;1002906;-67
2023/03/31 04:43:12;;;;;;;8.40;4.80;;;;;;;7.19;41.54;100129.33;108604;1281;24418;-67
2023/03/31 04:45:37;;;;;;;8.90;5.00;;;;;;;7.31;41.25;100123.88;108498;1281;22018;-61
2023/03/31 04:48:05;;;;;;;9.70;4.80;;;;;;;7.45;41.57;100122.27;108489;1280;22007;-67
2023/03/31 04:50:31;;;;;;;10.10;5.50;;;;;;;7.59;41.76;100119.06;108442;1280;22792;-67
2023/03/31 04:52:57;;;;;;;10.40;5.60;;;;;;;7.74;41.82;100116.89;108517;1281;22244;-68
2023/03/31 04:55:23;;;;;;;8.90;5.00;;;;;;;7.90;41.51;100121.02;107742;1281;1003992;-62
2023/03/31 04:57:50;;;;;;;7.50;5.00;;;;;;;8.04;41.81;100115.16;108474;1277;21973;-61
2023/03/31 05:00:17;;;;;;;11.80;7.50;;;;;;;8.18;42.09;100108.27;108465;1281;21989;-70
2023/03/31 05:02:43;;;;;;;8.90;5.70;;;;;;;8.34;41.83;100103.95;108473;1276;21990;-61
2023/03/31 05:05:09;;;;;;;8.00;5.00;;;;;;;8.42;42.16;100098.83;108381;1277;21993;-68
2023/03/31 05:07:35;;;;;;;10.60;5.10;;;;;;;8.58;41.86;100094.88;108469;1281;21998;-60
2023/03/31 05:10:05;;;;;;;6.60;4.20;;;;;;;8.76;41.52;100095.25;108420;1281;23615;-60
2023/03/31 05:12:34;;;;;;;7.00;4.50;;;;;;;8.90;41.88;100091.79;108565;1277;21987;-68
2023/03/31 05:15:01;;;;;;;12.40;10.00;;;;;;;9.09;41.43;100090.36;108499;1281;21988;-68
2023/03/31 05:17:31;;;;;;;9.60;7.20;;;;;;;9.19;41.90;100087.45;108369;1281;21972;-60
2023/03/31 05:19:58;;;;;;;33.40;20.00;;;;;;;9.35;41.50;100082.54;108509;1269;21978;-60
2023/03/31 05:22:24;;;;;;;22.00;13.50;;;;;;;9.48;41.48;100082.37;108398;1281;22090;-68
2023/03/31 05:24:50;;;;;;;21.90;13.10;;;;;;;9.68;41.27;100082.83;108370;1277;21991;-69
2023/03/31 05:27:15;;;;;;;20.10;12.00;;;;;;;9.82;41.49;100080.35;108402;1281;21980;-69
2023/03/31 05:29:43;;;;;;;17.90;10.20;;;;;;;9.95;41.42;100080.36;108406;1278;21982;-69
2023/03/31 05:32:09;;;;;;;9.50;5.50;;;;;;;10.10;41.27;100078.20;108572;1269;22038;-60
2023/03/31 05:34:36;;;;;;;17.20;11.20;;;;;;;10.27;40.95;100078.63;108523;1281;22012;-62
2023/03/31 05:37:02;;;;;;;10.30;6.40;;;;;;;10.42;41.29;100079.31;108518;1281;21986;-60
2023/03/31 05:39:31;;;;;;;34.90;18.00;;;;;;;10.61;41.09;100079.70;108480;1281;22017;-68
2023/03/31 05:42:00;;;;;;;74.80;30.50;;;;;;;10.79;41.28;100074.11;108556;1281;21995;-69
2023/03/31 05:44:26;;;;;;;11.90;5.60;;;;;;;11.07;41.33;100069.56;108475;1281;21983;-70
2023/03/31 05:46:55;;;;;;;7.80;4.70;;;;;;;11.36;40.85;100065.48;108557;1280;21974;-60
2023/03/31 05:49:20;;;;;;;25.80;11.20;;;;;;;11.66;40.79;100067.66;108508;1281;21989;-69
2023/03/31 05:51:46;;;;;;;14.10;7.70;;;;;;;12.01;40.57;100060.91;108507;1281;21989;-68
2023/03/31 05:54:12;;;;;;;8.20;4.60;;;;;;;12.41;39.38;100050.48;108345;1281;22004;-60
2023/03/31 05:56:39;;;;;;;6.60;4.20;;;;;;;12.73;37.93;100044.38;108456;1281;23049;-67
2023/03/31 05:59:05;;;;;;;8.40;4.10;;;;;;;13.01;37.21;100037.11;108458;1281;22010;-60
2023/03/31 06:01:31;;;;;;;7.00;4.00;;;;;;;13.17;36.19;100028.56;108439;1281;21955;-60
2023/03/31 06:03:57;;;;;;;6.10;3.50;;;;;;;13.38;35.85;100023.23;108439;1281;21988;-59
2023/03/31 06:06:24;;;;;;;5.50;3.70;;;;;;;13.45;35.18;100021.80;107644;1281;1002492;-60
2023/03/31 06:08:50;;;;;;;5.70;3.40;;;;;;;13.47;34.92;100018.20;108465;1281;21983;-59
2023/03/31 06:11:18;;;;;;;7.00;3.90;;;;;;;13.55;35.00;100010.92;108490;1281;23589;-67
2023/03/31 06:13:44;;;;;;;6.80;3.40;;;;;;;13.50;34.65;100015.30;108509;1281;23771;-67
2023/03/31 06:16:11;;;;;;;7.30;3.60;;;;;;;13.56;34.68;100016.54;108523;1281;21979;-68
2023/03/31 06:18:38;;;;;;;4.90;3.30;;;;;;;13.62;34.55;100012.46;108571;1281;21993;-59
2023/03/31 06:21:04;;;;;;;6.00;3.50;;;;;;;13.72;34.51;100010.39;107724;1281;1002566;-65
2023/03/31 06:23:31;;;;;;;6.10;3.20;;;;;;;13.81;34.38;100012.08;108551;1269;22017;-59
2023/03/31 06:26:05;;;;;;;5.50;3.30;;;;;;;13.91;34.15;100012.27;108511;1279;21980;-68
2023/03/31 06:28:35;;;;;;;5.80;3.50;;;;;;;14.06;34.29;100005.99;108598;1281;22455;-59
2023/03/31 06:31:01;;;;;;;5.50;3.50;;;;;;;14.23;34.02;100004.54;108466;1281;21980;-59
2023/03/31 06:33:27;;;;;;;6.80;3.30;;;;;;;14.48;34.13;100001.73;108534;1281;22016;-59
2023/03/31 06:35:58;;;;;;;7.70;4.30;;;;;;;14.66;33.79;100005.89;108467;1281;21979;-61
2023/03/31 06:38:24;;;;;;;6.30;3.40;;;;;;;14.68;32.68;100002.14;108382;1281;21984;-68
2023/03/31 06:40:50;;;;;;;8.20;5.10;;;;;;;14.77;32.46;100003.08;108400;1281;21982;-60
2023/03/31 06:43:16;;;;;;;9.20;5.00;;;;;;;14.92;32.74;99998.11;108488;1281;22028;-59
2023/03/31 06:45:41;;;;;;;5.30;2.90;;;;;;;14.98;31.67;99995.96;108450;1280;21986;-59
2023/03/31 06:48:07;;;;;;;7.10;3.60;;;;;;;14.97;31.12;100000.43;108451;1281;22158;-68
2023/03/31 06:50:33;;;;;;;6.40;3.00;;;;;;;14.79;30.58;100003.89;108383;1281;21989;-68
2023/03/31 06:52:59;;;;;;;4.50;2.60;;;;;;;14.84;31.15;100003.34;108282;1277;21999;-68
2023/03/31 06:55:25;;;;;;;4.30;2.80;;;;;;;14.91;31.79;100002.75;108437;1281;21993;-67
2023/03/31 06:57:50;;;;;;;6.70;3.70;;;;;;;14.81;31.62;100005.93;108415;1281;21981;-66
2023/03/31 07:00:17;;;;;;;5.60;3.10;;;;;;;14.77;31.30;100014.92;108642;1281;22449;-60
2023/03/31 07:02:44;;;;;;;5.30;3.50;;;;;;;14.93;31.47;100014.15;107670;1281;1003094;-68
2023/03/31 07:05:10;;;;;;;4.60;2.90;;;;;;;15.01;31.13;100011.58;108434;1277;22209;-61
2023/03/31 07:07:36;;;;;;;5.60;3.30;;;;;;;15.13;31.21;100015.90;108398;1281;21984;-68
2023/03/31 07:10:03;;;;;;;5.20;3.10;;;;;;;15.22;31.05;100007.80;108493;1277;21984;-68
2023/03/31 07:12:33;;;;;;;7.00;3.40;;;;;;;15.32;30.78;100006.91;108285;1281;21982;-60
2023/03/31 07:14:59;;;;;;;6.00;3.50;;;;;;;15.25;30.82;100003.80;108392;1281;23740;-67
2023/03/31 07:17:25;;;;;;;6.70;3.00;;;;;;;15.22;30.90;100000.23;108475;1281;22454;-60
2023/03/31 07:19:52;;;;;;;6.10;3.40;;;;;;;15.20;30.77;99998.86;108416;1281;22049;-66
2023/03/31 07:22:18;;;;;;;5.90;3.50;;;;;;;15.35;30.73;100000.95;108475;1281;21974;-66
2023/03/31 07:24:43;;;;;;;5.90;3.00;;;;;;;15.46;30.41;100003.70;108456;1281;21992;-66
2023/03/31 07:27:10;;;;;;;5.50;3.30;;;;;;;15.43;29.95;99999.05;108511;1277;22254;-60
2023/03/31 07:29:35;;;;;;;6.60;3.20;;;;;;;15.53;30.44;99996.90;108457;1281;22196;-61
2023/03/31 07:32:01;;;;;;;6.30;3.20;;;;;;;15.57;29.89;99998.71;108470;1281;21988;-67
2023/03/31 07:34:27;;;;;;;4.20;2.70;;;;;;;15.48;29.84;99997.10;108456;1281;21985;-66
2023/03/31 07:36:56;;;;;;;5.10;3.10;;;;;;;15.30;29.47;99994.97;108536;1281;21985;-67
2023/03/31 07:39:21;;;;;;;6.20;3.10;;;;;;;15.51;30.01;99989.38;108443;1281;21984;-67
2023/03/31 07:41:47;;;;;;;5.60;2.80;;;;;;;15.43;29.48;99989.14;108424;1281;21972;-60
2023/03/31 07:44:16;;;;;;;5.60;3.30;;;;;;;15.66;29.65;99985.07;108525;1281;21989;-60
2023/03/31 07:46:42;;;;;;;6.50;2.90;;;;;;;15.92;29.73;99983.20;108584;1281;21986;-60
2023/03/31 07:49:09;;;;;;;6.70;3.20;;;;;;;16.09;29.48;99972.93;107553;1281;1002337;-61
2023/03/31 07:51:35;;;;;;;5.50;3.30;;;;;;;16.29;29.67;99967.34;108549;1281;21981;-61
2023/03/31 07:54:01;;;;;;;6.00;3.30;;;;;;;16.36;28.77;99969.16;108460;1281;21984;-69
2023/03/31 07:56:31;;;;;;;10.40;3.20;;;;;;;16.50;29.01;99961.48;108570;1281;21983;-61
2023/03/31 07:58:57;;;;;;;7.00;3.40;;;;;;;16.67;29.19;99954.90;108421;1281;21982;-69
2023/03/31 08:01:24;;;;;;;6.20;3.40;;;;;;;16.73;28.40;99947.58;108401;1281;21975;-69
2023/03/31 08:03:53;;;;;;;5.60;3.50;;;;;;;16.94;28.81;99948.91;108410;1281;21988;-67
2023/03/31 08:06:19;;;;;;;5.50;2.90;;;;;;;17.16;28.79;99950.05;108420;1281;21993;-66
2023/03/31 08:08:45;;;;;;;4.70;2.90;;;;;;;17.34;29.16;99940.17;108417;1281;21984;-67
2023/03/31 08:11:12;;;;;;;5.80;3.20;;;;;;;17.44;28.50;99935.95;108446;1281;22021;-65
2023/03/31 08:13:40;;;;;;;6.50;2.90;;;;;;;17.57;28.67;99931.64;108660;1281;22042;-61
2023/03/31 08:16:05;;;;;;;7.00;3.10;;;;;;;17.66;28.90;99924.65;108592;1270;21993;-60
2023/03/31 08:18:33;;;;;;;6.60;2.90;;;;;;;17.53;28.36;99925.27;108532;1281;22003;-59
2023/03/31 08:20:59;;;;;;;4.30;3.10;;;;;;;17.53;28.18;99924.38;108429;1281;22264;-68
2023/03/31 08:23:25;;;;;;;8.30;3.00;;;;;;;17.47;27.45;99919.73;108495;1281;21983;-59
2023/03/31 08:25:51;;;;;;;6.10;3.20;;;;;;;17.58;27.89;99919.55;108452;1281;21990;-61
2023/03/31 08:28:17;;;;;;;4.90;2.90;;;;;;;17.59;27.85;99918.42;108507;1281;21985;-70
2023/03/31 08:30:45;;;;;;;4.20;2.70;;;;;;;17.56;28.09;99911.82;108427;1281;21991;-59
2023/03/31 08:33:11;;;;;;;4.80;3.00;;;;;;;17.64;28.22;99908.80;108425;1281;21983;-60
2023/03/31 08:35:36;;;;;;;5.20;3.20;;;;;;;17.73;28.13;99908.52;108414;1281;21982;-68
2023/03/31 08:38:02;;;;;;;5.20;3.00;;;;;;;17.88;28.18;99905.45;108407;1281;23048;-69
2023/03/31 08:40:29;;;;;;;6.30;3.30;;;;;;;18.07;28.43;99898.86;108577;1274;21978;-61
2023/03/31 08:42:56;;;;;;;5.60;2.90;;;;;;;18.09;27.55;99903.38;108479;1281;22020;-60
2023/03/31 08:45:42;;;;;;;4.30;2.90;;;;;;;18.35;27.90;99898.66;108465;1281;22556;-59
2023/03/31 08:48:21;;;;;;;6.30;3.30;;;;;;;18.54;27.73;99890.92;108606;1281;21983;-60
2023/03/31 08:50:49;;;;;;;6.50;3.60;;;;;;;18.53;27.30;99889.18;108516;1281;21995;-60
2023/03/31 08:53:21;;;;;;;6.00;4.30;;;;;;;18.46;27.16;99890.62;108622;1281;21996;-66
2023/03/31 08:55:49;;;;;;;8.00;3.60;;;;;;;18.52;27.43;99884.30;108513;1281;21982;-67
2023/03/31 08:58:43;;;;;;;4.90;3.10;;;;;;;18.53;27.63;99879.23;108504;1281;21985;-60
2023/03/31 09:01:42;;;;;;;5.20;3.30;;;;;;;18.73;27.94;99877.66;108620;1281;21982;-66
2023/03/31 09:04:07;;;;;;;7.60;4.10;;;;;;;18.87;27.70;99870.33;108407;1281;21993;-67
2023/03/31 09:06:48;;;;;;;8.90;6.30;;;;;;;18.96;27.31;99868.94;108452;1281;21981;-66
2023/03/31 09:09:37;;;;;;;13.30;5.60;;;;;;;19.05;27.23;99864.57;108316;1281;21983;-66
2023/03/31 09:12:41;;;;;;;5.00;3.60;;;;;;;19.15;27.23;99857.08;108404;1281;21971;-59
2023/03/31 09:15:13;;;;;;;6.70;4.00;;;;;;;19.05;26.42;99856.73;108388;1281;21989;-60
2023/03/31 09:17:43;;;;;;;7.10;3.40;;;;;;;19.13;26.91;99855.91;108492;1281;21992;-60
2023/03/31 09:20:20;;;;;;;5.80;4.00;;;;;;;19.18;26.98;99851.59;108425;1277;21980;-60
2023/03/31 09:23:10;;;;;;;6.30;3.60;;;;;;;19.27;27.36;99842.86;108515;1281;22013;-60
2023/03/31 09:25:37;;;;;;;5.70;3.00;;;;;;;19.25;26.86;99835.34;108397;1281;21978;-65
2023/03/31 09:28:18;;;;;;;5.50;3.20;;;;;;;19.36;27.00;99829.02;108550;1277;21980;-66
2023/03/31 09:30:48;;;;;;;4.80;3.10;;;;;;;19.49;26.95;99824.54;108502;1281;21988;-65
2023/03/31 09:33:23;;;;;;;7.20;3.40;;;;;;;19.59;26.90;99816.14;108451;1281;21986;-59
2023/03/31 09:35:48;;;;;;;8.80;3.90;;;;;;;19.72;26.34;99815.73;108494;1274;22013;-60
2023/03/31 09:38:16;;;;;;;5.00;2.90;;;;;;;19.84;26.46;99805.24;108464;1281;21986;-59
2023/03/31 09:40:43;;;;;;;6.80;3.40;;;;;;;19.98;26.87;99806.21;108227;1281;21983;-61
2023/03/31 09:43:20;;;;;;;6.10;3.30;;;;;;;19.89;26.53;99807.60;108364;1277;21980;-64
2023/03/31 09:45:46;;;;;;;6.50;3.20;;;;;;;19.86;26.60;99804.98;108445;1277;22004;-65
2023/03/31 09:48:19;;;;;;;5.40;3.30;;;;;;;19.87;26.83;99802.73;108413;1281;22010;-61
2023/03/31 09:50:59;;;;;;;6.60;3.10;;;;;;;19.96;26.70;99797.41;108442;1281;21982;-65
2023/03/31 09:53:26;;;;;;;8.60;4.10;;;;;;;20.02;26.39;99790.64;108490;1281;21949;-66
2023/03/31 09:55:52;;;;;;;7.60;3.50;;;;;;;20.16;26.69;99786.05;108461;1281;21980;-61
2023/03/31 09:58:19;;;;;;;5.10;2.90;;;;;;;20.16;26.55;99782.32;108542;1281;21992;-65
2023/03/31 10:01:00;;;;;;;5.90;3.50;;;;;;;20.23;26.60;99775.81;108401;1281;21991;-66
2023/03/31 10:03:28;;;;;;;4.90;3.00;;;;;;;20.29;26.70;99776.17;108529;1281;23702;-65
2023/03/31 10:05:55;;;;;;;5.00;2.90;;;;;;;20.22;26.64;99769.63;108358;1281;21974;-66
2023/03/31 10:08:26;;;;;;;7.70;3.50;;;;;;;20.39;26.81;99759.86;108596;1281;22000;-61
2023/03/31 10:10:53;;;;;;;4.50;2.90;;;;;;;20.49;26.51;99763.50;108272;1281;21978;-67
2023/03/31 10:13:25;;;;;;;5.80;3.60;;;;;;;20.78;26.85;99758.30;108246;1281;206724;-60
2023/03/31 10:15:53;;;;;;;5.90;3.00;;;;;;;21.11;26.81;99749.95;108418;1281;21988;-61
2023/03/31 10:18:19;;;;;;;4.20;2.50;;;;;;;21.16;26.72;99745.71;108489;1281;21989;-68
2023/03/31 10:20:51;;;;;;;7.20;3.00;;;;;;;21.28;26.53;99743.64;108546;1281;22028;-68
2023/03/31 10:23:23;;;;;;;5.50;2.90;;;;;;;21.21;26.18;99740.38;108565;1281;22035;-69
2023/03/31 10:25:49;;;;;;;5.40;2.80;;;;;;;21.35;26.98;99737.50;108537;1281;21978;-61
2023/03/31 10:28:18;;;;;;;6.60;2.70;;;;;;;21.46;26.89;99735.98;108425;1281;21982;-60
2023/03/31 10:31:02;;;;;;;6.60;3.10;;;;;;;21.61;26.40;99733.21;108459;1281;21982;-61
2023/03/31 10:33:30;;;;;;;5.30;2.90;;;;;;;21.60;26.04;99723.67;108311;1281;21983;-61
2023/03/31 10:36:01;;;;;;;5.10;2.90;;;;;;;21.74;26.57;99719.83;107709;1281;1004003;-61
2023/03/31 10:38:29;;;;;;;;;;;;;;;21.68;26.03;99717.25;108579;1281;23103;-62
2023/03/31 10:40:56;;;;;;;5.20;2.50;;;;;;;21.73;26.09;99718.48;108522;1281;21982;-61
2023/03/31 10:43:33;;;;;;;6.40;3.50;;;;;;;21.99;26.34;99717.38;108575;1281;21977;-60
2023/03/31 10:46:03;;;;;;;6.30;3.00;;;;;;;22.00;25.94;99711.27;108516;1281;22005;-68
2023/03/31 10:48:30;;;;;;;;;;;;;;;22.07;26.06;99706.49;108565;1281;21966;-68
2023/03/31 10:51:20;;;;;;;6.60;2.70;;;;;;;22.12;26.31;99699.85;108457;1281;21983;-60
2023/03/31 10:53:50;;;;;;;4.30;2.70;;;;;;;22.06;26.13;99696.53;108432;1281;21983;-60
2023/03/31 10:56:34;;;;;;;5.80;2.50;;;;;;;22.09;26.16;99695.95;108524;1281;21979;-70
2023/03/31 10:59:12;;;;;;;6.90;3.70;;;;;;;21.92;26.30;99691.48;108504;1281;22445;-70
2023/03/31 11:02:06;;;;;;;5.30;2.90;;;;;;;22.09;26.49;99684.34;108517;1281;21979;-70
2023/03/31 11:04:34;;;;;;;5.80;3.00;;;;;;;22.37;26.20;99680.63;108458;1281;21946;-70
2023/03/31 11:07:21;;;;;;;7.40;2.70;;;;;;;22.52;26.35;99675.47;108550;1281;22072;-59
2023/03/31 11:10:09;;;;;;;8.60;2.90;;;;;;;22.78;26.20;99664.36;108481;1281;21980;-59
2023/03/31 11:12:43;;;;;;;5.30;2.40;;;;;;;23.06;26.84;99660.55;108613;1281;21948;-69
2023/03/31 11:15:19;;;;;;;5.20;2.40;;;;;;;23.27;27.71;99657.48;108563;1281;22998;-60
2023/03/31 11:18:12;;;;;;;6.10;2.80;;;;;;;23.38;27.85;99656.16;108481;1281;21980;-67
2023/03/31 11:20:48;;;;;;;6.40;2.20;;;;;;;23.04;27.35;99653.72;108450;1281;21980;-71
2023/03/31 11:23:27;;;;;;;10.10;3.00;;;;;;;22.76;27.49;99645.92;108543;1281;21990;-60
2023/03/31 11:25:59;;;;;;;5.50;2.70;;;;;;;22.25;27.87;99645.67;108508;1281;21985;-60
2023/03/31 11:28:42;;;;;;;7.70;2.40;;;;;;;22.15;28.06;99645.00;108456;1281;21980;-71
2023/03/31 11:31:15;;;;;;;6.10;2.50;;;;;;;22.00;28.50;99641.08;108484;1281;21990;-72
2023/03/31 11:34:03;;;;;;;6.00;2.50;;;;;;;21.81;28.91;99644.07;108445;1281;21969;-60
2023/03/31 11:36:42;;;;;;;6.90;2.50;;;;;;;21.71;29.12;99640.64;108363;1281;23748;-71